Time;durP1;ratioP1;P1;durP2;ratioP2;P2;SDS_P1;SDS_P2;PMS_P1;PMS_P2;Temp;Humidity;BMP_temperature;BMP_pressure;BME280_temperature;BME280_humidity;BME280_pressure;Samples;Min_cycle;Max_cycle;Signal;HPM_P1;HPM_P2
2023/05/20 00:00:23;;;;;;;4.60;4.20;;;;;;;22.50;89.27;100320.67;104272;1257;59673;-61
2023/05/20 00:02:50;;;;;;;4.70;4.40;;;;;;;22.49;89.70;100318.41;104274;1262;72051;-60
2023/05/20 00:05:17;;;;;;;4.70;4.20;;;;;;;22.46;89.45;100320.60;104219;1262;70327;-61
2023/05/20 00:07:44;;;;;;;4.90;4.10;;;;;;;22.44;89.25;100319.17;104367;1266;73304;-60
2023/05/20 00:10:12;;;;;;;4.70;4.10;;;;;;;22.40;90.31;100315.04;104172;1262;62154;-62
2023/05/20 00:12:39;;;;;;;4.50;4.10;;;;;;;22.39;89.79;100317.25;104240;1260;60729;-61
2023/05/20 00:15:07;;;;;;;4.90;4.40;;;;;;;22.35;90.08;100317.77;104337;1259;75817;-61
2023/05/20 00:17:34;;;;;;;;;;;;;;;22.29;89.92;100316.14;104212;1255;69819;-60
2023/05/20 00:20:01;;;;;;;4.10;3.80;;;;;;;22.19;93.03;100317.58;104187;1262;72861;-61
2023/05/20 00:22:28;;;;;;;4.70;4.20;;;;;;;22.11;92.24;100322.29;105840;1256;62667;-61
2023/05/20 00:24:55;;;;;;;4.10;3.40;;;;;;;22.11;91.94;100323.55;107834;1255;59801;-62
2023/05/20 00:27:23;;;;;;;4.20;3.90;;;;;;;22.11;91.82;100325.16;105242;1262;73425;-61
2023/05/20 00:29:50;;;;;;;3.60;3.30;;;;;;;22.07;91.99;100322.26;104272;1256;69446;-61
2023/05/20 00:32:17;;;;;;;4.40;4.00;;;;;;;22.06;92.09;100325.44;104274;1263;73269;-61
2023/05/20 00:34:55;;;;;;;5.50;3.80;;;;;;;22.04;92.08;100322.01;104375;1256;61603;-61
2023/05/20 00:37:22;;;;;;;4.70;4.30;;;;;;;22.01;93.01;100318.19;104217;1260;61471;-62
2023/05/20 00:39:49;;;;;;;4.50;4.10;;;;;;;21.98;92.70;100315.89;104196;1256;73610;-60
2023/05/20 00:42:26;;;;;;;4.80;4.40;;;;;;;22.02;91.81;100316.08;104536;1261;71381;-60
2023/05/20 00:44:54;;;;;;;4.80;4.10;;;;;;;21.99;91.91;100318.29;104077;1260;75240;-60
2023/05/20 00:47:29;;;;;;;4.70;4.10;;;;;;;21.88;93.28;100318.66;104098;1270;61922;-61
2023/05/20 00:49:57;;;;;;;4.20;3.90;;;;;;;21.87;93.88;100314.13;104156;1257;59849;-61
2023/05/20 00:52:24;;;;;;;5.10;4.10;;;;;;;21.86;93.26;100317.36;104063;1261;73803;-63
2023/05/20 00:54:51;;;;;;;4.30;4.00;;;;;;;21.84;92.88;100319.36;104164;1257;72017;-60
2023/05/20 00:57:18;;;;;;;4.10;3.80;;;;;;;21.80;92.96;100313.23;104198;1256;73441;-60
2023/05/20 00:59:46;;;;;;;4.20;3.90;;;;;;;21.76;93.20;100314.76;104200;1262;63396;-60
2023/05/20 01:02:13;;;;;;;4.70;3.60;;;;;;;21.70;93.88;100313.63;104088;1257;60852;-61
2023/05/20 01:04:45;;;;;;;4.20;3.90;;;;;;;21.69;93.89;100312.10;104051;1255;73261;-60
2023/05/20 01:07:16;;;;;;;4.10;3.80;;;;;;;21.64;94.57;100315.02;104229;1261;71040;-60
2023/05/20 01:09:43;;;;;;;4.20;3.90;;;;;;;21.60;95.12;100313.92;104254;1257;74887;-60
2023/05/20 01:12:20;;;;;;;4.40;4.00;;;;;;;21.60;94.78;100312.51;104135;1270;62702;-60
2023/05/20 01:14:59;;;;;;;4.50;4.20;;;;;;;21.63;95.46;100311.16;104258;1254;60474;-60
2023/05/20 01:17:28;;;;;;;4.70;4.10;;;;;;;21.64;95.04;100308.05;104340;1269;73434;-60
2023/05/20 01:19:55;;;;;;;4.70;4.30;;;;;;;21.58;95.02;100308.13;104398;1256;69946;-60
2023/05/20 01:22:27;;;;;;;4.30;3.90;;;;;;;21.58;94.80;100303.48;104371;1256;73624;-60
2023/05/20 01:24:55;;;;;;;4.80;4.40;;;;;;;21.57;94.66;100303.60;103978;1278;62226;-60
2023/05/20 01:27:25;;;;;;;5.20;4.70;;;;;;;21.53;94.77;100298.56;104151;1263;60847;-60
2023/05/20 01:29:53;;;;;;;5.50;4.30;;;;;;;21.47;95.11;100298.52;104376;1259;73873;-60
2023/05/20 01:32:49;;;;;;;4.60;4.30;;;;;;;21.42;96.05;100299.94;104514;1262;69386;-60
2023/05/20 01:35:18;;;;;;;4.70;4.30;;;;;;;21.39;96.97;100300.87;104292;1278;73345;-63
2023/05/20 01:37:45;;;;;;;5.70;5.10;;;;;;;21.33;96.14;100299.66;104321;1254;61791;-60
2023/05/20 01:40:13;;;;;;;4.50;4.10;;;;;;;21.33;96.06;100296.46;104133;1257;60639;-60
2023/05/20 01:42:42;;;;;;;5.20;4.70;;;;;;;21.32;95.52;100295.31;104149;1271;75509;-62
2023/05/20 01:45:09;;;;;;;5.10;4.60;;;;;;;21.30;96.98;100290.48;104046;1262;69955;-58
2023/05/20 01:47:37;;;;;;;6.50;4.70;;;;;;;21.25;97.70;100288.80;104393;1272;73522;-58
2023/05/20 01:50:05;;;;;;;5.10;4.50;;;;;;;21.24;97.37;100292.92;104368;1258;63125;-59
2023/05/20 01:52:33;;;;;;;4.40;4.10;;;;;;;21.26;98.20;100297.73;104201;1262;62153;-59
2023/05/20 01:55:01;;;;;;;4.80;4.30;;;;;;;21.27;97.73;100297.48;104048;1274;72320;-59
2023/05/20 01:57:28;;;;;;;5.70;4.50;;;;;;;21.30;98.29;100299.37;104235;1266;69216;-59
2023/05/20 01:59:56;;;;;;;4.90;4.50;;;;;;;21.34;97.79;100300.86;104343;1267;72538;-58
2023/05/20 02:02:23;;;;;;;4.40;4.10;;;;;;;21.34;98.09;100300.86;104334;1259;62101;-61
2023/05/20 02:04:50;;;;;;;4.30;4.00;;;;;;;21.33;98.26;100299.72;104419;1259;60492;-59
2023/05/20 02:07:17;;;;;;;4.60;4.30;;;;;;;21.41;97.76;100302.17;104421;1259;73658;-59
2023/05/20 02:09:45;;;;;;;4.70;4.00;;;;;;;21.47;96.18;100303.48;104436;1251;69889;-61
2023/05/20 02:12:15;;;;;;;4.30;3.90;;;;;;;21.49;96.60;100303.66;104520;1260;72895;-61
2023/05/20 02:14:46;;;;;;;4.40;4.10;;;;;;;21.48;95.97;100306.13;104356;1253;61537;-61
2023/05/20 02:17:18;;;;;;;4.50;4.10;;;;;;;21.48;96.62;100309.14;104304;1253;61049;-61
2023/05/20 02:19:45;;;;;;;4.50;4.10;;;;;;;21.48;96.27;100311.60;104331;1257;72702;-60
2023/05/20 02:22:13;;;;;;;4.50;4.10;;;;;;;21.48;96.51;100315.86;104436;1260;70142;-59
2023/05/20 02:24:42;;;;;;;4.10;3.80;;;;;;;21.48;96.39;100313.59;106278;1250;73592;-60
2023/05/20 02:27:09;;;;;;;4.50;3.90;;;;;;;21.49;95.80;100312.04;107968;1250;61858;-60
2023/05/20 02:29:37;;;;;;;4.20;3.90;;;;;;;21.49;95.78;100312.23;104896;1252;60694;-60
2023/05/20 02:32:04;;;;;;;3.90;3.60;;;;;;;21.51;95.70;100313.86;104565;1266;73294;-60
2023/05/20 02:34:32;;;;;;;6.60;4.00;;;;;;;21.54;95.12;100312.06;104425;1259;70743;-60
2023/05/20 02:37:00;;;;;;;5.00;4.00;;;;;;;21.54;94.50;100316.08;104436;1258;73187;-60
2023/05/20 02:39:30;;;;;;;4.10;3.80;;;;;;;21.53;94.62;100313.16;104474;1251;61925;-60
2023/05/20 02:41:57;;;;;;;6.00;3.90;;;;;;;21.53;94.01;100318.36;104531;1259;60590;-60
2023/05/20 02:44:24;;;;;;;4.10;3.60;;;;;;;21.52;94.12;100320.60;104762;1253;73831;-60
2023/05/20 02:46:53;;;;;;;3.80;3.50;;;;;;;21.50;93.60;100321.42;104248;1253;71019;-59
2023/05/20 02:49:21;;;;;;;3.90;3.60;;;;;;;21.50;93.56;100324.44;104511;1258;75275;-60
2023/05/20 02:51:48;;;;;;;3.80;3.40;;;;;;;21.53;93.51;100324.05;104305;1269;62473;-60
2023/05/20 02:54:15;;;;;;;3.60;3.40;;;;;;;21.54;93.42;100329.11;104447;1259;61323;-60
2023/05/20 02:56:42;;;;;;;3.90;3.60;;;;;;;21.55;92.97;100329.97;104523;1273;73852;-60
2023/05/20 02:59:11;;;;;;;6.70;3.60;;;;;;;21.55;92.68;100330.47;104388;1259;69551;-60
2023/05/20 03:01:39;;;;;;;3.90;3.60;;;;;;;21.53;93.28;100332.11;104391;1257;73207;-60
2023/05/20 03:04:07;;;;;;;3.30;3.00;;;;;;;21.54;93.05;100331.83;104347;1267;64633;-60
2023/05/20 03:06:36;;;;;;;3.60;3.30;;;;;;;21.54;93.22;100334.52;104350;1253;61297;-61
2023/05/20 03:09:04;;;;;;;3.50;3.20;;;;;;;21.53;93.57;100334.17;104411;1263;73977;-60
2023/05/20 03:11:31;;;;;;;;;;;;;;;21.55;93.36;100332.48;104390;1269;69013;-60
2023/05/20 03:13:59;;;;;;;3.50;3.00;;;;;;;21.56;95.37;100330.39;104436;1259;73507;-60
2023/05/20 03:16:26;;;;;;;3.90;3.30;;;;;;;21.58;93.24;100334.91;104433;1254;60955;-60
2023/05/20 03:18:54;;;;;;;3.50;3.20;;;;;;;21.60;92.78;100334.42;104487;1272;61344;-60
2023/05/20 03:21:22;;;;;;;5.60;3.20;;;;;;;21.59;93.44;100338.92;104364;1270;73025;-60
2023/05/20 03:23:50;;;;;;;4.40;3.40;;;;;;;21.53;93.49;100337.77;104407;1259;70141;-60
2023/05/20 03:26:17;;;;;;;3.70;3.40;;;;;;;21.60;93.74;100339.75;104497;1252;72397;-60
2023/05/20 03:28:45;;;;;;;3.50;3.20;;;;;;;21.64;92.37;100338.38;104367;1259;61226;-61
2023/05/20 03:31:12;;;;;;;3.20;2.90;;;;;;;21.66;90.52;100335.90;104431;1267;60423;-61
2023/05/20 03:33:39;;;;;;;3.40;3.10;;;;;;;21.69;90.43;100337.79;104480;1260;74676;-61
2023/05/20 03:36:07;;;;;;;3.50;3.10;;;;;;;21.73;90.15;100340.88;104297;1253;69206;-61
2023/05/20 03:38:34;;;;;;;3.10;2.80;;;;;;;21.79;88.73;100344.71;104379;1258;72938;-60
2023/05/20 03:41:02;;;;;;;3.10;2.90;;;;;;;21.82;88.12;100344.24;104417;1266;62341;-60
2023/05/20 03:43:29;;;;;;;3.30;2.90;;;;;;;21.88;87.67;100343.60;104495;1259;62599;-60
2023/05/20 03:45:57;;;;;;;3.20;3.00;;;;;;;21.90;87.82;100343.09;104568;1270;73334;-60
2023/05/20 03:48:24;;;;;;;3.40;3.20;;;;;;;21.89;88.51;100341.89;104432;1267;69331;-60
2023/05/20 03:50:52;;;;;;;;;;;;;;;21.93;88.32;100343.05;104430;1259;73363;-60
2023/05/20 03:53:20;;;;;;;3.00;2.80;;;;;;;21.99;88.72;100340.80;104500;1257;61954;-61
2023/05/20 03:55:47;;;;;;;2.80;2.60;;;;;;;21.97;88.04;100342.88;104403;1267;60603;-61
2023/05/20 03:58:14;;;;;;;;;;;;;;;21.94;87.90;100345.25;104320;1274;73200;-62
2023/05/20 04:00:42;;;;;;;3.60;2.60;;;;;;;21.99;88.78;100340.27;104401;1257;70982;-61
2023/05/20 04:03:10;;;;;;;5.70;3.00;;;;;;;21.98;86.76;100341.77;104560;1257;72390;-61
2023/05/20 04:05:38;;;;;;;3.80;3.50;;;;;;;22.02;85.63;100344.29;104468;1269;61199;-60
2023/05/20 04:08:12;;;;;;;3.20;2.90;;;;;;;22.07;84.51;100348.16;104384;1254;60718;-60
2023/05/20 04:10:41;;;;;;;3.10;2.90;;;;;;;22.08;84.10;100352.73;104355;1267;74104;-60
2023/05/20 04:13:10;;;;;;;3.40;3.10;;;;;;;22.16;83.50;100353.16;104310;1257;69027;-60
2023/05/20 04:15:37;;;;;;;3.80;2.90;;;;;;;22.21;83.18;100353.37;104544;1257;73172;-60
2023/05/20 04:18:05;;;;;;;3.20;2.90;;;;;;;22.23;83.05;100358.17;104343;1272;62437;-61
2023/05/20 04:20:32;;;;;;;3.50;3.30;;;;;;;22.27;82.27;100358.39;104387;1267;61003;-61
2023/05/20 04:22:59;;;;;;;3.90;3.50;;;;;;;22.32;83.73;100355.90;104389;1269;73548;-60
2023/05/20 04:25:26;;;;;;;2.90;2.70;;;;;;;22.36;82.78;100352.87;104426;1266;69652;-60
2023/05/20 04:27:56;;;;;;;3.70;3.10;;;;;;;22.38;81.92;100355.54;104363;1267;73642;-60
2023/05/20 04:30:24;;;;;;;5.70;3.40;;;;;;;22.43;80.84;100352.80;104319;1256;64559;-60
2023/05/20 04:32:52;;;;;;;3.80;3.30;;;;;;;22.44;80.80;100350.97;104439;1270;60856;-60
2023/05/20 04:35:19;;;;;;;3.20;3.00;;;;;;;22.51;80.46;100355.56;104565;1259;74034;-61
2023/05/20 04:37:48;;;;;;;3.80;3.50;;;;;;;22.55;79.76;100358.83;104423;1264;69838;-61
2023/05/20 04:40:16;;;;;;;3.80;3.30;;;;;;;22.60;79.71;100358.77;104641;1259;72574;-62
2023/05/20 04:42:43;;;;;;;3.70;3.20;;;;;;;22.66;78.45;100361.52;104383;1259;62323;-62
2023/05/20 04:45:11;;;;;;;4.50;3.30;;;;;;;22.75;77.80;100367.39;104575;1259;60625;-61
2023/05/20 04:47:39;;;;;;;3.50;3.20;;;;;;;22.80;77.80;100368.57;104496;1256;74192;-61
2023/05/20 04:50:10;;;;;;;3.80;3.30;;;;;;;22.87;77.86;100368.55;104382;1269;72134;-60
2023/05/20 04:52:41;;;;;;;3.30;3.00;;;;;;;22.90;78.05;100369.33;104379;1269;73552;-60
2023/05/20 04:55:10;;;;;;;3.80;3.20;;;;;;;22.96;77.90;100365.98;104392;1272;61881;-59
2023/05/20 04:57:40;;;;;;;5.40;3.10;;;;;;;23.00;77.92;100362.46;104655;1257;60538;-60
2023/05/20 05:00:10;;;;;;;3.70;3.40;;;;;;;23.03;76.24;100360.79;104349;1256;74819;-61
2023/05/20 05:02:37;;;;;;;8.30;4.10;;;;;;;23.03;76.28;100358.13;104317;1259;70158;-63
2023/05/20 05:05:05;;;;;;;4.20;3.60;;;;;;;23.09;75.83;100362.84;104429;1258;74411;-60
2023/05/20 05:07:33;;;;;;;3.50;3.20;;;;;;;23.17;76.18;100362.27;104425;1267;62183;-59
2023/05/20 05:10:00;;;;;;;3.40;3.10;;;;;;;23.22;76.48;100362.42;104479;1258;60539;-60
2023/05/20 05:12:29;;;;;;;4.40;3.30;;;;;;;23.28;76.72;100364.25;104435;1250;74310;-59
2023/05/20 05:14:57;;;;;;;4.10;3.60;;;;;;;23.28;75.87;100363.67;104318;1258;69305;-59
2023/05/20 05:17:27;;;;;;;5.80;3.70;;;;;;;23.31;75.86;100367.55;104353;1267;72615;-59
2023/05/20 05:19:56;;;;;;;5.60;3.40;;;;;;;23.36;75.61;100363.41;104501;1259;61620;-58
2023/05/20 05:22:23;;;;;;;3.80;3.30;;;;;;;23.44;75.59;100366.46;104391;1251;60533;-58
2023/05/20 05:24:51;;;;;;;3.60;3.30;;;;;;;23.45;74.84;100365.27;105140;1250;74762;-60
2023/05/20 05:27:18;;;;;;;3.20;3.00;;;;;;;23.45;75.04;100367.42;108436;1256;70295;-60
2023/05/20 05:29:45;;;;;;;5.10;3.60;;;;;;;23.49;75.19;100376.38;106702;1256;72681;-59
2023/05/20 05:32:12;;;;;;;5.10;3.30;;;;;;;23.51;74.06;100375.38;104677;1266;63448;-59
2023/05/20 05:34:39;;;;;;;4.90;3.90;;;;;;;23.46;74.83;100377.56;104878;1250;63040;-60
2023/05/20 05:37:06;;;;;;;3.80;3.40;;;;;;;23.58;74.59;100374.94;104520;1257;74267;-59
2023/05/20 05:39:36;;;;;;;6.30;3.30;;;;;;;23.63;73.53;100382.73;104412;1259;69526;-59
2023/05/20 05:42:04;;;;;;;3.80;3.20;;;;;;;23.69;73.53;100382.89;104466;1258;72428;-59
2023/05/20 05:44:32;;;;;;;4.30;3.80;;;;;;;23.74;73.00;100386.98;104544;1259;61660;-59
2023/05/20 05:46:59;;;;;;;3.40;3.20;;;;;;;23.81;72.64;100389.27;104455;1267;60509;-59
2023/05/20 05:49:27;;;;;;;3.70;3.50;;;;;;;23.88;72.63;100389.37;104500;1267;74295;-58
2023/05/20 05:51:54;;;;;;;3.60;3.30;;;;;;;23.95;72.59;100384.44;104237;1266;70055;-58
2023/05/20 05:54:22;;;;;;;3.60;3.30;;;;;;;24.04;71.84;100384.03;104324;1254;72612;-59
2023/05/20 05:56:50;;;;;;;3.40;3.10;;;;;;;24.09;71.41;100384.52;104582;1266;61723;-59
2023/05/20 05:59:18;;;;;;;3.80;3.50;;;;;;;24.12;70.75;100385.71;104358;1257;60520;-59
2023/05/20 06:01:45;;;;;;;3.80;3.50;;;;;;;24.18;70.59;100380.71;104459;1258;73347;-59
2023/05/20 06:04:13;;;;;;;4.30;3.90;;;;;;;24.23;70.17;100378.45;104421;1257;71998;-60
2023/05/20 06:06:40;;;;;;;3.80;3.40;;;;;;;24.21;69.09;100377.94;104425;1259;72454;-61
2023/05/20 06:09:08;;;;;;;4.70;3.20;;;;;;;24.19;69.59;100375.61;104281;1270;62703;-60
2023/05/20 06:11:35;;;;;;;3.80;3.50;;;;;;;24.22;69.65;100375.65;104440;1267;60852;-60
2023/05/20 06:14:03;;;;;;;6.00;3.50;;;;;;;24.25;68.31;100377.70;104674;1259;74168;-60
2023/05/20 06:16:30;;;;;;;3.20;3.00;;;;;;;24.28;68.07;100371.73;104331;1258;70589;-60
2023/05/20 06:18:58;;;;;;;3.90;3.40;;;;;;;24.23;68.54;100370.00;104487;1254;72948;-60
2023/05/20 06:21:31;;;;;;;3.10;2.90;;;;;;;24.31;68.24;100370.59;104264;1257;61887;-60
2023/05/20 06:23:59;;;;;;;4.30;2.90;;;;;;;24.35;68.64;100369.81;104539;1259;61335;-60
2023/05/20 06:26:26;;;;;;;3.30;2.90;;;;;;;24.48;68.47;100371.75;104455;1260;75066;-60
2023/05/20 06:28:53;;;;;;;5.20;2.90;;;;;;;24.60;67.53;100372.16;104477;1267;70530;-60
2023/05/20 06:31:21;;;;;;;3.70;3.00;;;;;;;24.67;67.64;100368.48;104327;1267;72800;-60
2023/05/20 06:33:48;;;;;;;2.90;2.70;;;;;;;24.76;66.41;100364.73;104572;1263;62225;-60
2023/05/20 06:36:16;;;;;;;3.20;3.00;;;;;;;24.84;65.41;100367.81;104598;1257;62572;-62
2023/05/20 06:38:43;;;;;;;3.10;2.80;;;;;;;24.89;65.54;100365.36;104595;1258;75927;-60
2023/05/20 06:41:12;;;;;;;3.20;2.90;;;;;;;24.99;65.12;100368.22;104596;1257;69519;-60
2023/05/20 06:43:40;;;;;;;5.50;2.60;;;;;;;25.06;63.30;100368.48;104822;1265;72929;-60
2023/05/20 06:46:29;;;;;;;2.80;2.60;;;;;;;25.17;61.84;100363.45;104963;1255;64892;-60
2023/05/20 06:49:04;;;;;;;6.00;2.50;;;;;;;25.30;61.28;100367.33;104840;1252;60683;-60
2023/05/20 06:51:31;;;;;;;2.90;2.30;;;;;;;25.36;59.68;100364.65;105183;1258;76622;-62
2023/05/20 06:53:59;;;;;;;7.30;2.80;;;;;;;25.43;60.61;100361.30;104625;1257;70650;-62
2023/05/20 06:56:26;;;;;;;2.70;2.50;;;;;;;25.52;59.23;100365.51;104887;1260;74279;-62
2023/05/20 06:58:54;;;;;;;4.10;2.50;;;;;;;25.66;57.94;100364.11;104638;1266;61589;-62
2023/05/20 07:01:21;;;;;;;3.60;2.70;;;;;;;25.72;57.28;100364.69;105022;1257;63329;-64
2023/05/20 07:03:49;;;;;;;4.10;2.70;;;;;;;25.76;57.15;100363.18;104719;1257;75034;-64
2023/05/20 07:06:16;;;;;;;2.70;2.30;;;;;;;25.83;55.92;100367.41;104417;1270;69989;-64
2023/05/20 07:08:43;;;;;;;4.90;2.80;;;;;;;25.92;56.42;100372.50;104967;1257;73782;-64
2023/05/20 07:11:11;;;;;;;2.90;2.50;;;;;;;25.97;55.46;100371.67;104640;1267;64891;-64
2023/05/20 07:13:38;;;;;;;6.30;2.60;;;;;;;26.00;55.23;100372.61;104717;1256;60978;-62
2023/05/20 07:16:06;;;;;;;3.60;2.20;;;;;;;26.06;54.10;100368.66;104699;1266;74045;-62
2023/05/20 07:18:35;;;;;;;2.30;2.20;;;;;;;26.10;53.37;100370.77;104814;1254;71009;-65
2023/05/20 07:21:02;;;;;;;2.30;2.10;;;;;;;26.18;53.44;100370.14;104632;1254;74909;-63
2023/05/20 07:23:46;;;;;;;7.70;2.40;;;;;;;26.31;53.14;100368.00;104654;1254;61563;-64
2023/05/20 07:26:14;;;;;;;2.80;2.60;;;;;;;26.38;51.64;100367.48;105717;1250;60837;-63
2023/05/20 07:28:41;;;;;;;2.40;2.10;;;;;;;26.40;52.79;100361.73;106092;1251;75506;-64
2023/05/20 07:31:08;;;;;;;4.40;2.40;;;;;;;26.42;51.98;100365.69;106267;1254;71450;-70
2023/05/20 07:33:41;;;;;;;4.00;2.20;;;;;;;26.45;52.37;100372.17;105632;1254;72988;-63
2023/05/20 07:36:08;;;;;;;5.70;2.40;;;;;;;26.58;51.20;100375.59;104894;1260;60837;-64
2023/05/20 07:38:38;;;;;;;3.10;2.40;;;;;;;26.64;50.66;100368.40;105343;1256;61705;-63
2023/05/20 07:41:11;;;;;;;3.30;2.40;;;;;;;26.71;51.04;100365.52;105391;1254;76288;-64
2023/05/20 07:43:38;;;;;;;6.80;2.20;;;;;;;26.76;50.70;100365.26;104823;1251;70754;-64
2023/05/20 07:46:06;;;;;;;4.00;2.90;;;;;;;26.89;48.89;100365.58;105679;1255;73958;-64
2023/05/20 07:48:33;;;;;;;3.30;2.80;;;;;;;26.93;49.33;100362.05;104803;1265;62329;-65
2023/05/20 07:51:00;;;;;;;4.50;2.60;;;;;;;27.00;48.64;100353.11;104605;1257;61865;-63
2023/05/20 07:53:28;;;;;;;3.30;3.00;;;;;;;27.00;47.54;100353.65;104580;1259;74605;-65
2023/05/20 07:55:55;;;;;;;6.20;2.90;;;;;;;27.02;47.02;100358.90;104759;1252;70300;-63
2023/05/20 07:58:26;;;;;;;4.50;2.40;;;;;;;27.08;47.06;100355.67;104692;1254;72955;-63
2023/05/20 08:00:53;;;;;;;3.00;2.40;;;;;;;27.16;47.29;100354.56;104684;1257;61772;-63
2023/05/20 08:03:21;;;;;;;3.00;2.40;;;;;;;27.22;46.52;100349.26;104341;1251;60913;-63
2023/05/20 08:05:54;;;;;;;4.20;2.80;;;;;;;27.36;46.15;100350.64;104411;1271;73473;-63
2023/05/20 08:08:21;;;;;;;6.50;2.70;;;;;;;27.42;44.95;100349.39;104444;1266;71263;-63
2023/05/20 08:10:55;;;;;;;2.80;2.20;;;;;;;27.51;45.01;100351.17;104338;1257;72952;-65
2023/05/20 08:13:23;;;;;;;2.90;2.70;;;;;;;27.52;44.55;100347.34;104332;1257;62875;-63
2023/05/20 08:15:52;;;;;;;;;;;;;;;27.40;43.16;100352.91;104474;1250;62973;-62
2023/05/20 08:18:19;;;;;;;2.80;2.60;;;;;;;27.47;42.72;100348.34;104677;1258;75843;-62
2023/05/20 08:20:47;;;;;;;6.50;2.60;;;;;;;27.49;43.76;100349.38;104534;1257;70218;-66
2023/05/20 08:23:14;;;;;;;6.20;2.70;;;;;;;27.53;44.08;100348.66;104337;1265;75027;-65
2023/05/20 08:25:41;;;;;;;5.70;2.40;;;;;;;27.56;43.14;100348.52;104420;1257;60512;-65
2023/05/20 08:28:09;;;;;;;4.10;2.20;;;;;;;27.64;42.84;100345.55;104384;1257;60549;-66
2023/05/20 08:30:37;;;;;;;4.20;2.50;;;;;;;27.71;42.56;100347.73;104855;1264;73875;-66
2023/05/20 08:33:04;;;;;;;2.70;2.20;;;;;;;27.75;40.92;100348.32;104397;1260;70889;-65
2023/05/20 08:35:32;;;;;;;3.00;2.00;;;;;;;27.85;40.37;100352.34;104443;1255;74004;-65
2023/05/20 08:38:00;;;;;;;4.80;2.10;;;;;;;27.91;40.58;100347.98;104430;1267;60589;-66
2023/05/20 08:40:28;;;;;;;4.10;2.40;;;;;;;27.97;40.70;100344.69;104500;1260;60312;-65
2023/05/20 08:42:56;;;;;;;2.80;2.00;;;;;;;28.03;39.60;100341.55;104559;1264;76267;-63
2023/05/20 08:45:26;;;;;;;2.60;2.10;;;;;;;28.16;39.17;100339.23;107525;1252;70290;-64
2023/05/20 08:47:57;;;;;;;6.80;2.30;;;;;;;28.21;39.13;100334.04;107674;1254;73099;-66
2023/05/20 08:50:25;;;;;;;3.00;2.40;;;;;;;28.29;39.74;100333.33;104798;1254;60503;-67
2023/05/20 08:52:52;;;;;;;2.90;2.10;;;;;;;28.37;39.34;100337.36;104413;1256;62914;-68
2023/05/20 08:55:37;;;;;;;4.50;2.30;;;;;;;28.53;39.58;100341.48;104901;1255;76352;-67
2023/05/20 08:58:05;;;;;;;4.00;2.20;;;;;;;28.65;39.48;100335.48;104936;1254;70519;-64
2023/05/20 09:00:33;;;;;;;2.50;2.30;;;;;;;28.74;39.09;100330.71;104802;1251;73290;-65
2023/05/20 09:03:00;;;;;;;;;;;;;;;28.85;39.22;100332.90;104541;1256;62068;-64
2023/05/20 09:05:28;;;;;;;2.50;2.20;;;;;;;28.98;37.87;100332.90;104359;1261;60829;-65
2023/05/20 09:08:11;;;;;;;4.20;2.00;;;;;;;28.89;37.45;100330.52;104385;1257;73127;-63
2023/05/20 09:10:39;;;;;;;6.20;2.20;;;;;;;28.91;37.26;100336.95;104414;1266;70310;-64
2023/05/20 09:13:07;;;;;;;4.30;2.40;;;;;;;28.86;36.61;100340.17;104312;1257;72963;-62
2023/05/20 09:15:34;;;;;;;;;;;;;;;28.91;36.97;100335.10;104438;1251;61193;-63
2023/05/20 09:18:03;;;;;;;6.00;2.40;;;;;;;28.89;36.66;100330.12;104482;1257;60596;-62
2023/05/20 09:20:33;;;;;;;4.10;2.50;;;;;;;28.87;36.67;100330.52;104408;1254;74333;-63
2023/05/20 09:23:02;;;;;;;6.00;2.20;;;;;;;28.96;36.79;100326.84;104309;1257;70001;-63
2023/05/20 09:25:29;;;;;;;4.40;2.70;;;;;;;29.08;36.95;100324.24;104297;1263;73774;-60
2023/05/20 09:27:56;;;;;;;3.10;2.10;;;;;;;29.12;35.56;100328.02;106353;1251;62116;-62
2023/05/20 09:30:23;;;;;;;2.60;2.40;;;;;;;29.11;35.67;100331.36;108249;1252;59609;-62
2023/05/20 09:32:58;;;;;;;5.30;2.50;;;;;;;29.15;35.94;100339.55;105293;1256;73380;-61
2023/05/20 09:35:26;;;;;;;3.70;2.30;;;;;;;29.27;35.61;100341.83;104519;1254;70263;-63
2023/05/20 09:37:56;;;;;;;7.10;2.50;;;;;;;29.33;35.51;100334.35;104658;1260;73493;-64
2023/05/20 09:40:27;;;;;;;6.00;2.10;;;;;;;29.31;35.08;100335.98;104476;1267;60851;-63
2023/05/20 09:43:09;;;;;;;3.00;1.80;;;;;;;29.33;34.66;100331.45;104616;1260;60616;-63
2023/05/20 09:45:37;;;;;;;4.70;1.90;;;;;;;29.30;33.47;100322.43;104397;1267;74354;-63
2023/05/20 09:48:04;;;;;;;10.00;1.70;;;;;;;29.39;34.50;100332.45;104419;1257;71863;-63
2023/05/20 09:50:32;;;;;;;1.80;1.70;;;;;;;29.47;34.41;100332.02;104485;1269;72808;-63
2023/05/20 09:53:03;;;;;;;2.80;1.60;;;;;;;29.54;34.07;100322.84;104397;1254;60828;-64
2023/05/20 09:55:31;;;;;;;4.40;1.50;;;;;;;29.47;32.54;100319.29;104354;1268;60975;-62
2023/05/20 09:58:01;;;;;;;2.50;1.80;;;;;;;29.44;33.28;100325.90;104454;1257;76480;-62
2023/05/20 10:00:28;;;;;;;3.00;1.60;;;;;;;29.45;32.46;100330.98;104312;1256;69441;-63
2023/05/20 10:02:55;;;;;;;11.80;1.80;;;;;;;29.49;33.08;100322.68;104290;1275;72696;-62
2023/05/20 10:05:36;;;;;;;3.90;1.50;;;;;;;29.50;32.86;100322.67;104466;1253;62230;-62
2023/05/20 10:08:18;;;;;;;3.70;1.70;;;;;;;29.57;32.68;100320.45;104450;1270;60765;-62
2023/05/20 10:11:11;;;;;;;3.30;1.70;;;;;;;29.70;33.15;100314.84;104406;1265;74371;-64
2023/05/20 10:13:47;;;;;;;2.00;1.60;;;;;;;29.83;31.96;100314.48;104406;1259;71247;-63
2023/05/20 10:16:39;;;;;;;1.90;1.60;;;;;;;29.90;32.53;100322.22;104313;1257;75051;-64
2023/05/20 10:19:29;;;;;;;2.90;1.90;;;;;;;29.97;32.06;100321.75;104520;1254;60944;-64
2023/05/20 10:21:57;;;;;;;2.20;1.70;;;;;;;29.96;32.41;100321.30;104506;1254;60971;-60
2023/05/20 10:24:32;;;;;;;2.40;1.50;;;;;;;29.91;31.47;100317.19;104519;1267;74605;-66
2023/05/20 10:27:04;;;;;;;1.80;1.70;;;;;;;29.95;32.37;100309.53;104474;1257;71146;-62
2023/05/20 10:29:51;;;;;;;4.90;1.70;;;;;;;30.02;32.15;100317.55;107950;1253;72418;-63
2023/05/20 10:32:28;;;;;;;6.90;1.50;;;;;;;30.09;32.15;100314.69;107109;1254;62572;-62
2023/05/20 10:35:00;;;;;;;;;;;;;;;30.06;31.94;100304.80;104660;1254;60035;-62
2023/05/20 10:37:28;;;;;;;5.10;1.50;;;;;;;30.08;31.47;100309.83;105421;1253;75831;-61
2023/05/20 10:40:10;;;;;;;1.70;1.40;;;;;;;30.04;31.42;100311.21;105416;1257;70610;-62
2023/05/20 10:42:37;;;;;;;1.50;1.40;;;;;;;30.07;31.44;100311.78;104761;1260;74389;-62
2023/05/20 10:45:05;;;;;;;4.30;1.40;;;;;;;30.14;31.83;100308.02;104517;1254;61271;-61
2023/05/20 10:47:33;;;;;;;2.50;1.60;;;;;;;30.22;31.34;100306.21;104631;1259;60868;-60
2023/05/20 10:50:06;;;;;;;1.60;1.40;;;;;;;30.27;31.64;100306.89;108433;1252;74770;-61
2023/05/20 10:52:35;;;;;;;3.00;1.40;;;;;;;30.33;31.56;100301.69;105821;1255;72411;-63
2023/05/20 10:55:03;;;;;;;2.10;1.60;;;;;;;30.30;30.99;100304.04;104844;1257;73005;-62
2023/05/20 10:57:31;;;;;;;2.80;1.80;;;;;;;30.27;31.38;100306.73;104798;1254;61931;-63
2023/05/20 10:59:59;;;;;;;3.00;1.40;;;;;;;30.32;31.59;100304.74;104736;1254;61101;-62
2023/05/20 11:02:27;;;;;;;2.30;1.90;;;;;;;30.41;31.13;100307.86;104766;1263;76307;-62
2023/05/20 11:04:57;;;;;;;1.90;1.60;;;;;;;30.44;30.79;100301.77;104467;1259;69871;-61
2023/05/20 11:07:28;;;;;;;3.30;1.90;;;;;;;30.41;31.33;100313.00;104409;1268;73619;-61
2023/05/20 11:09:56;;;;;;;2.60;1.40;;;;;;;30.46;30.99;100313.30;104345;1253;60645;-61
2023/05/20 11:12:24;;;;;;;3.40;1.60;;;;;;;30.55;30.92;100301.67;104359;1269;60557;-62
2023/05/20 11:14:51;;;;;;;3.90;1.70;;;;;;;30.65;30.82;100302.77;104430;1253;76363;-62
2023/05/20 11:17:19;;;;;;;5.40;1.80;;;;;;;30.70;30.70;100294.89;104377;1257;70069;-62
2023/05/20 11:19:47;;;;;;;2.60;1.40;;;;;;;30.75;30.83;100298.14;104426;1257;73017;-62
2023/05/20 11:22:14;;;;;;;;;;;;;;;30.75;30.33;100295.39;104339;1269;61156;-60
2023/05/20 11:24:41;;;;;;;5.90;1.30;;;;;;;30.81;30.70;100301.39;104368;1267;60638;-60
2023/05/20 11:27:08;;;;;;;1.60;1.40;;;;;;;30.79;30.36;100302.69;104342;1257;73754;-60